Terminal Aerodrome Forecast
Issued by NWS

Home | Current Version | Previous Version | Text Only | Print | Product List | Glossary On
Versions: 1 2 3 4 5 6 7 8 9 10 11 12 13 14 15 16
000
FTUS46 KMTR 282300
TAFSTS
TAF
KSTS 282337Z 2900/2924 19009KT P6SM SKC
     FM290400 15005KT P6SM SKC
     FM290800 00000KT P6SM OVC004
      TEMPO 2913/2917 00000KT 1SM BR OVC002
     FM291800 VRB03KT P6SM SKC
     FM292100 19009KT P6SM SKC=

USA.gov is the U.S. government's official web portal to all federal, state and local government web resources and services.